< < Back
Terminal Aerodrome Forecast


Current Version              Previous Versions:   1  2  3  4  5  6  7  8  9  

Terminal Aerodrome Forecast

456
FTUS42 KGSP 021000 AAA
TAFAND
TAF AMD
KAND 021029Z 0210/0306 00000KT P6SM SCT250
      TEMPO 0211/0213 5SM BR
     FM021300 24004KT P6SM SCT250
     FM021900 25007KT P6SM SCT060
     FM022100 24006KT P6SM BKN060 PROB30 0221/0224 4SM TSRA BKN040CB
     FM030000 24003KT P6SM BKN060=

Latest METAR

241
SAUS70 KWBC 021200 RRB
MTRAND
METAR KAND 021156Z AUTO 00000KT 10SM CLR 22/21 A3010 RMK AO2 SLP182
T02220211 10239 20217 50005


USA.gov is the U.S. government's official web portal to all federal, state and local government web resources and services.